Time;durP1;ratioP1;P1;durP2;ratioP2;P2;SDS_P1;SDS_P2;PMS_P1;PMS_P2;Temp;Humidity;BMP_temperature;BMP_pressure;BME280_temperature;BME280_humidity;BME280_pressure;Samples;Min_cycle;Max_cycle;Signal;HPM_P1;HPM_P2
2023/06/05 17:31:59;;;;;;;4.30;3.20;;;32.20;19.10;;;;;;2078524;27;20599;-66
2023/06/05 17:33:00;;;;;;;5.50;3.80;;;31.30;20.50;;;;;;2076797;28;20193;-66
2023/06/05 17:34:01;;;;;;;4.35;3.45;;;30.90;20.60;;;;;;2074949;28;20602;-65
2023/06/05 17:35:02;;;;;;;4.68;3.50;;;30.80;20.70;;;;;;2074969;28;20189;-66
2023/06/05 17:36:03;;;;;;;4.93;4.03;;;30.90;21.40;;;;;;2076555;28;20185;-64
2023/06/05 17:37:04;;;;;;;4.15;3.50;;;30.50;21.70;;;;;;2075400;28;20221;-66
2023/06/05 17:38:05;;;;;;;5.78;2.90;;;30.30;21.80;;;;;;2070937;28;20224;-66
2023/06/05 17:39:07;;;;;;;5.13;3.92;;;30.60;21.80;;;;;;2057022;28;20190;-65
2023/06/05 17:40:08;;;;;;;4.63;3.90;;;29.70;22.60;;;;;;2064237;28;20193;-66
2023/06/05 17:41:09;;;;;;;5.68;3.90;;;29.70;22.70;;;;;;2067018;28;20184;-66
2023/06/05 17:42:09;;;;;;;6.00;3.30;;;29.80;21.70;;;;;;2067304;28;20436;-66
2023/06/05 17:43:10;;;;;;;4.95;3.55;;;30.10;22.20;;;;;;2066286;28;20186;-66
2023/06/05 17:44:13;;;;;;;4.43;3.40;;;30.40;21.80;;;;;;2066023;28;20209;-65
2023/06/05 17:45:14;;;;;;;4.00;3.50;;;30.40;21.90;;;;;;2067602;28;20229;-66
2023/06/05 17:46:15;;;;;;;3.73;3.13;;;30.60;21.00;;;;;;2067973;28;20207;-67
2023/06/05 17:47:15;;;;;;;6.00;3.47;;;30.90;21.00;;;;;;2067314;28;20628;-66
2023/06/05 17:48:16;;;;;;;4.87;3.70;;;30.90;20.60;;;;;;2066682;28;21046;-67
2023/06/05 17:49:17;;;;;;;4.30;3.53;;;31.10;20.80;;;;;;2064489;28;20285;-66
2023/06/05 17:50:18;;;;;;;4.50;3.60;;;31.20;22.10;;;;;;2068705;28;20273;-67
2023/06/05 17:51:18;;;;;;;7.07;3.33;;;31.30;20.80;;;;;;2068843;28;20292;-67
2023/06/05 17:52:20;;;;;;;4.22;3.40;;;31.60;20.60;;;;;;2074601;28;20298;-66
2023/06/05 17:53:23;;;;;;;5.23;3.17;;;31.50;20.40;;;;;;2075239;28;20236;-66
2023/06/05 17:54:25;;;;;;;5.73;3.77;;;31.50;20.00;;;;;;2073826;28;20984;-66
2023/06/05 17:55:26;;;;;;;4.00;3.60;;;31.40;20.30;;;;;;2076221;28;20233;-66
2023/06/05 17:56:27;;;;;;;4.63;3.53;;;31.20;20.80;;;;;;2068941;28;20316;-65
2023/06/05 17:57:28;;;;;;;3.67;3.37;;;30.90;20.70;;;;;;2065198;28;20230;-64
2023/06/05 17:58:28;;;;;;;6.90;3.37;;;30.50;21.20;;;;;;2068392;28;20332;-65
2023/06/05 17:59:31;;;;;;;4.47;3.53;;;30.30;21.50;;;;;;2069393;28;20233;-65
2023/06/05 18:00:32;;;;;;;3.30;3.00;;;29.80;22.20;;;;;;2068171;28;20704;-66
2023/06/05 18:01:33;;;;;;;6.23;3.80;;;29.90;22.00;;;;;;2066659;28;20257;-65
2023/06/05 18:02:33;;;;;;;4.03;3.43;;;29.80;22.00;;;;;;2068151;28;20762;-66
2023/06/05 18:03:35;;;;;;;4.20;3.63;;;29.40;21.70;;;;;;2068476;28;20237;-65
2023/06/05 18:04:36;;;;;;;4.00;3.53;;;29.20;22.90;;;;;;2068800;28;20240;-66
2023/06/05 18:05:36;;;;;;;6.33;3.80;;;29.10;22.50;;;;;;2069198;28;20336;-66
2023/06/05 18:06:38;;;;;;;4.17;3.50;;;29.30;22.50;;;;;;2068688;28;20268;-66
2023/06/05 18:07:38;;;;;;;3.97;3.57;;;29.40;22.20;;;;;;2071856;28;20321;-66
2023/06/05 18:08:39;;;;;;;5.23;3.37;;;29.50;22.50;;;;;;2074901;28;20387;-68
2023/06/05 18:09:40;;;;;;;3.37;3.07;;;29.50;22.40;;;;;;2066868;28;20679;-66
2023/06/05 18:10:40;;;;;;;3.40;3.10;;;29.50;22.20;;;;;;2044377;28;20227;-67
2023/06/05 18:11:43;;;;;;;3.83;3.43;;;29.40;22.30;;;;;;2044405;28;20247;-66
2023/06/05 18:12:44;;;;;;;3.87;3.13;;;29.20;22.60;;;;;;2068155;28;20360;-67
2023/06/05 18:13:44;;;;;;;6.07;3.40;;;29.20;22.50;;;;;;2067641;28;20794;-65
2023/06/05 18:14:45;;;;;;;7.07;4.00;;;29.10;22.60;;;;;;2068685;28;20248;-66
2023/06/05 18:15:46;;;;;;;6.17;3.80;;;29.10;22.60;;;;;;2068329;28;20284;-66
2023/06/05 18:16:47;;;;;;;4.13;3.13;;;29.20;23.50;;;;;;2060948;28;20226;-67
2023/06/05 18:17:47;;;;;;;4.60;3.90;;;29.40;22.20;;;;;;2052182;28;20265;-66
2023/06/05 18:18:48;;;;;;;3.53;3.20;;;29.50;22.10;;;;;;2060588;28;20587;-67
2023/06/05 18:19:49;;;;;;;5.33;3.40;;;29.40;22.30;;;;;;2065469;28;20913;-66
2023/06/05 18:20:50;;;;;;;4.20;3.20;;;29.20;22.30;;;;;;2068855;28;20280;-65
2023/06/05 18:21:51;;;;;;;4.00;3.53;;;29.00;22.50;;;;;;2068068;28;20237;-66
2023/06/05 18:22:52;;;;;;;4.10;3.03;;;28.90;23.20;;;;;;2069203;28;20272;-66
2023/06/05 18:23:52;;;;;;;4.23;3.30;;;28.70;22.80;;;;;;2068255;28;20287;-67
2023/06/05 18:24:53;;;;;;;6.17;3.10;;;28.60;23.30;;;;;;2065462;28;20258;-66
2023/06/05 18:25:54;;;;;;;4.30;3.60;;;28.30;22.50;;;;;;2068629;28;20248;-66
2023/06/05 18:26:55;;;;;;;4.33;3.20;;;28.10;23.90;;;;;;2066538;28;20283;-66
2023/06/05 18:27:58;;;;;;;5.33;3.77;;;28.00;24.10;;;;;;2069474;28;20234;-65
2023/06/05 18:28:58;;;;;;;4.50;3.33;;;27.50;23.80;;;;;;2077236;28;20618;-69
2023/06/05 18:29:59;;;;;;;6.23;3.30;;;27.30;24.40;;;;;;2077353;28;20426;-69
2023/06/05 18:31:00;;;;;;;5.10;3.50;;;27.00;24.80;;;;;;2076278;28;20258;-66
2023/06/05 18:32:00;;;;;;;7.33;6.77;;;26.80;25.10;;;;;;2076942;28;20705;-65
2023/06/05 18:33:01;;;;;;;3.83;3.40;;;26.60;24.80;;;;;;2077474;28;20182;-66
2023/06/05 18:34:02;;;;;;;5.83;3.60;;;26.10;25.50;;;;;;2076901;28;20177;-66
2023/06/05 18:35:04;;;;;;;4.73;3.10;;;26.00;25.80;;;;;;2077070;28;20243;-66
2023/06/05 18:36:06;;;;;;;4.97;3.53;;;25.70;25.80;;;;;;2076600;28;20454;-66
2023/06/05 18:37:06;;;;;;;5.03;3.20;;;25.50;27.10;;;;;;2076504;28;20558;-67
2023/06/05 18:38:09;;;;;;;3.70;3.30;;;25.20;26.60;;;;;;2074924;28;20938;-66
2023/06/05 18:39:10;;;;;;;4.93;3.03;;;25.00;26.60;;;;;;2076934;28;20220;-66
2023/06/05 18:40:11;;;;;;;3.73;3.20;;;24.70;27.20;;;;;;2085476;28;20449;-65
2023/06/05 18:41:12;;;;;;;3.93;3.17;;;24.50;28.10;;;;;;2085242;28;20501;-66
2023/06/05 18:42:12;;;;;;;4.77;2.90;;;24.30;28.00;;;;;;2077359;28;20917;-66
2023/06/05 18:43:16;;;;;;;3.27;2.97;;;24.00;27.80;;;;;;2080308;28;20181;-66
2023/06/05 18:44:17;;;;;;;4.20;3.20;;;23.80;28.30;;;;;;2076943;28;20205;-66
2023/06/05 18:45:20;;;;;;;5.00;3.43;;;23.60;28.50;;;;;;2071475;28;20455;-66
2023/06/05 18:46:21;;;;;;;3.77;3.23;;;23.30;30.80;;;;;;2071761;28;21109;-66
2023/06/05 18:47:21;;;;;;;4.83;3.27;;;23.10;31.80;;;;;;2071611;28;20471;-66
2023/06/05 18:48:23;;;;;;;4.13;3.73;;;22.80;30.80;;;;;;2067838;28;20292;-66
2023/06/05 18:49:23;;;;;;;3.20;2.90;;;22.60;32.10;;;;;;2071660;28;20498;-65
2023/06/05 18:50:24;;;;;;;5.57;3.27;;;22.50;32.10;;;;;;2071593;28;20313;-65
2023/06/05 18:51:25;;;;;;;5.20;3.60;;;22.40;31.90;;;;;;2071462;28;20696;-66
2023/06/05 18:52:26;;;;;;;5.60;3.30;;;22.20;32.60;;;;;;2070985;28;20242;-66
2023/06/05 18:53:26;;;;;;;4.57;3.37;;;22.00;32.20;;;;;;2078389;28;20232;-65
2023/06/05 18:54:27;;;;;;;4.80;3.30;;;21.70;32.70;;;;;;2077650;28;20953;-66
2023/06/05 18:55:30;;;;;;;4.30;2.97;;;21.50;35.00;;;;;;2070844;28;20236;-69
2023/06/05 18:56:33;;;;;;;5.13;3.23;;;21.30;35.10;;;;;;2071179;28;20261;-67
2023/06/05 18:57:35;;;;;;;5.70;3.27;;;21.30;34.00;;;;;;2071347;28;20474;-67
2023/06/05 18:58:36;;;;;;;6.73;3.00;;;21.00;35.10;;;;;;2070163;28;20471;-68
2023/06/05 18:59:37;;;;;;;5.03;3.40;;;20.80;36.80;;;;;;2071393;28;21002;-68
2023/06/05 19:00:40;;;;;;;4.67;3.20;;;20.70;37.30;;;;;;2071676;28;20612;-68
2023/06/05 19:01:41;;;;;;;3.50;3.13;;;20.50;37.00;;;;;;2075914;28;20961;-67
2023/06/05 19:02:42;;;;;;;4.90;3.23;;;20.30;36.60;;;;;;2065521;28;20459;-68
2023/06/05 19:03:43;;;;;;;4.57;3.73;;;20.20;38.40;;;;;;2062232;28;20605;-66
2023/06/05 19:04:43;;;;;;;3.87;3.20;;;20.20;38.10;;;;;;2070212;28;20241;-67
2023/06/05 19:05:45;;;;;;;4.17;3.10;;;20.00;38.90;;;;;;2071557;28;20253;-66
2023/06/05 19:06:46;;;;;;;3.93;2.93;;;20.00;39.20;;;;;;2067201;28;20221;-66
2023/06/05 19:07:47;;;;;;;3.67;3.37;;;20.00;39.10;;;;;;2068567;28;20856;-66
2023/06/05 19:08:48;;;;;;;5.53;3.40;;;19.90;40.10;;;;;;2067751;28;20470;-69
2023/06/05 19:09:50;;;;;;;4.17;3.73;;;19.80;40.50;;;;;;2067575;28;20228;-66
2023/06/05 19:10:53;;;;;;;4.60;3.33;;;19.70;40.20;;;;;;2070526;28;20454;-67
2023/06/05 19:11:54;;;;;;;4.63;4.13;;;19.60;40.50;;;;;;2068484;28;20922;-67
2023/06/05 19:12:56;;;;;;;6.63;5.63;;;19.60;39.50;;;;;;2071864;28;20538;-66
2023/06/05 19:13:58;;;;;;;4.00;3.40;;;19.50;40.60;;;;;;2068602;28;21055;-66
2023/06/05 19:14:59;;;;;;;7.27;4.50;;;19.30;41.20;;;;;;2076944;28;20446;-68
2023/06/05 19:16:00;;;;;;;4.77;4.27;;;19.20;40.80;;;;;;2078591;28;20418;-66
2023/06/05 19:17:01;;;;;;;5.13;3.70;;;19.20;41.70;;;;;;2071584;28;20924;-66
2023/06/05 19:18:02;;;;;;;3.83;3.53;;;19.10;41.50;;;;;;2071266;28;20193;-66
2023/06/05 19:19:03;;;;;;;3.80;3.30;;;19.10;41.10;;;;;;2070465;28;20978;-66
2023/06/05 19:20:06;;;;;;;4.17;3.17;;;19.00;41.20;;;;;;2062511;28;20459;-66
2023/06/05 19:21:07;;;;;;;5.40;3.47;;;19.00;41.80;;;;;;2067626;28;20276;-66
2023/06/05 19:22:07;;;;;;;4.70;3.50;;;18.90;41.90;;;;;;2074065;28;20916;-67
2023/06/05 19:23:08;;;;;;;6.03;3.67;;;18.70;41.70;;;;;;2078930;28;20181;-67
2023/06/05 19:24:09;;;;;;;4.17;3.10;;;18.70;41.80;;;;;;2069212;28;20240;-67
2023/06/05 19:25:10;;;;;;;5.07;3.20;;;18.60;42.70;;;;;;2070667;28;20204;-66
2023/06/05 19:26:10;;;;;;;3.80;3.20;;;18.50;44.40;;;;;;2070657;28;20194;-67
2023/06/05 19:27:12;;;;;;;5.47;4.00;;;18.40;42.70;;;;;;2069754;28;20692;-66
2023/06/05 19:28:13;;;;;;;4.20;3.30;;;18.40;43.50;;;;;;2068767;28;20201;-67
2023/06/05 19:29:17;;;;;;;3.40;3.10;;;18.30;43.60;;;;;;2070717;28;20427;-66
2023/06/05 19:30:18;;;;;;;3.83;3.40;;;18.30;43.80;;;;;;2067639;28;20561;-67
2023/06/05 19:31:20;;;;;;;4.47;3.03;;;18.20;44.60;;;;;;2069579;28;20472;-65
2023/06/05 19:32:20;;;;;;;5.03;3.00;;;18.10;44.10;;;;;;2069264;28;20847;-66
2023/06/05 19:33:21;;;;;;;4.33;3.30;;;18.00;44.90;;;;;;2068591;28;20483;-66
2023/06/05 19:34:22;;;;;;;4.63;3.67;;;17.90;45.40;;;;;;2069762;28;20249;-65
2023/06/05 19:35:22;;;;;;;3.73;3.33;;;17.80;44.80;;;;;;2070676;28;20324;-67
2023/06/05 19:36:23;;;;;;;4.30;3.37;;;17.70;45.40;;;;;;2078559;28;21070;-67
2023/06/05 19:37:24;;;;;;;4.53;3.60;;;17.60;45.00;;;;;;2078979;28;20267;-67
2023/06/05 19:38:25;;;;;;;4.73;3.30;;;17.60;45.80;;;;;;2065644;28;20484;-67
2023/06/05 19:39:27;;;;;;;4.67;3.27;;;17.50;46.30;;;;;;2069154;28;20241;-65
2023/06/05 19:40:28;;;;;;;3.97;3.67;;;17.40;46.10;;;;;;2066591;28;20490;-66
2023/06/05 19:41:29;;;;;;;5.13;3.30;;;17.40;45.90;;;;;;2065624;28;20471;-64
2023/06/05 19:42:31;;;;;;;4.43;3.33;;;17.30;46.10;;;;;;2070626;28;20474;-65
2023/06/05 19:43:31;;;;;;;4.27;3.87;;;17.30;46.70;;;;;;2079015;28;20236;-65
2023/06/05 19:44:34;;;;;;;5.07;4.30;;;17.20;47.10;;;;;;2077975;28;20536;-65
2023/06/05 19:45:35;;;;;;;3.93;3.50;;;17.10;47.40;;;;;;2069061;28;20232;-64
2023/06/05 19:46:36;;;;;;;3.90;3.10;;;17.10;47.10;;;;;;2070166;28;20471;-65
2023/06/05 19:47:38;;;;;;;5.43;5.03;;;17.10;47.30;;;;;;2071320;28;20477;-66
2023/06/05 19:48:38;;;;;;;4.67;4.23;;;17.00;47.40;;;;;;2076523;28;20466;-67
2023/06/05 19:49:39;;;;;;;6.53;4.23;;;16.90;47.60;;;;;;2078918;28;20822;-67
2023/06/05 19:50:40;;;;;;;6.27;4.40;;;16.90;47.70;;;;;;2071245;28;20719;-67
2023/06/05 19:51:43;;;;;;;6.73;6.23;;;16.90;47.50;;;;;;2078361;28;20544;-66
2023/06/05 19:52:44;;;;;;;5.80;5.30;;;16.80;47.30;;;;;;2078479;28;20224;-67
2023/06/05 19:53:45;;;;;;;5.93;5.33;;;16.80;47.50;;;;;;2070779;28;20972;-65
2023/06/05 19:54:46;;;;;;;5.67;5.13;;;16.80;47.10;;;;;;2070037;28;20651;-67
2023/06/05 19:55:47;;;;;;;7.43;6.93;;;16.80;47.40;;;;;;2065872;28;20893;-66
2023/06/05 19:56:48;;;;;;;4.07;3.67;;;16.80;48.30;;;;;;2071162;28;20217;-66
2023/06/05 19:57:49;;;;;;;9.67;8.97;;;16.70;48.10;;;;;;2071153;28;20235;-66
2023/06/05 19:58:50;;;;;;;6.73;6.23;;;16.60;48.00;;;;;;2070474;28;21007;-66
2023/06/05 19:59:52;;;;;;;5.70;5.20;;;16.60;48.20;;;;;;2070082;28;20475;-66
2023/06/05 20:00:53;;;;;;;9.03;8.33;;;16.60;49.10;;;;;;2078490;28;20224;-66
2023/06/05 20:01:53;;;;;;;9.90;9.23;;;16.60;48.00;;;;;;2071049;28;20841;-66
2023/06/05 20:02:54;;;;;;;6.03;5.53;;;16.60;49.30;;;;;;2071340;28;20227;-66
2023/06/05 20:03:55;;;;;;;9.30;8.70;;;16.50;48.30;;;;;;2071052;28;20699;-67
2023/06/05 20:04:55;;;;;;;8.57;7.97;;;16.50;48.90;;;;;;2078094;28;20310;-66
2023/06/05 20:05:57;;;;;;;6.23;5.67;;;16.40;48.60;;;;;;2078963;28;20229;-67
2023/06/05 20:06:58;;;;;;;10.13;9.55;;;16.40;48.90;;;;;;2068456;28;20221;-66
2023/06/05 20:08:00;;;;;;;10.57;9.90;;;16.40;49.00;;;;;;2069391;28;20254;-67
2023/06/05 20:09:02;;;;;;;7.22;6.68;;;16.40;49.30;;;;;;2069879;28;20200;-67
2023/06/05 20:10:02;;;;;;;6.53;6.03;;;16.30;49.20;;;;;;2070271;28;20190;-66
2023/06/05 20:11:03;;;;;;;7.13;6.63;;;16.30;49.30;;;;;;2076102;28;20185;-65
2023/06/05 20:12:06;;;;;;;6.22;5.72;;;16.30;49.90;;;;;;2069370;28;20275;-67
2023/06/05 20:13:07;;;;;;;8.65;8.05;;;16.20;49.70;;;;;;2070813;28;20280;-66
2023/06/05 20:14:08;;;;;;;5.03;4.60;;;16.20;49.40;;;;;;2070182;28;20177;-65
2023/06/05 20:15:09;;;;;;;6.03;5.63;;;16.10;49.60;;;;;;2076255;28;20185;-67
2023/06/05 20:16:10;;;;;;;11.27;10.40;;;16.00;50.20;;;;;;2078133;28;20564;-66
2023/06/05 20:17:11;;;;;;;7.37;6.83;;;16.00;50.10;;;;;;2060847;28;20270;-67
2023/06/05 20:18:12;;;;;;;7.83;7.30;;;16.00;50.70;;;;;;2069965;28;20288;-66
2023/06/05 20:19:14;;;;;;;6.10;5.60;;;16.00;50.50;;;;;;2078839;28;20185;-66
2023/06/05 20:20:16;;;;;;;7.35;6.75;;;15.90;50.80;;;;;;2070207;28;20624;-66
2023/06/05 20:21:17;;;;;;;18.75;17.73;;;15.90;51.20;;;;;;2070014;28;20196;-65
2023/06/05 20:22:19;;;;;;;9.70;9.10;;;15.90;51.20;;;;;;2071049;28;20193;-66
2023/06/05 20:23:20;;;;;;;6.68;6.28;;;15.90;51.60;;;;;;2075209;28;20221;-67
2023/06/05 20:24:21;;;;;;;10.73;10.13;;;15.90;51.40;;;;;;2077126;28;20260;-67
2023/06/05 20:25:25;;;;;;;10.20;9.60;;;15.90;50.80;;;;;;2071075;28;20264;-66
2023/06/05 20:26:26;;;;;;;12.27;11.57;;;15.90;51.50;;;;;;2073282;28;20946;-67
2023/06/05 20:27:27;;;;;;;10.23;9.43;;;15.80;51.60;;;;;;2072959;28;20619;-66
2023/06/05 20:28:28;;;;;;;7.43;6.70;;;15.70;52.20;;;;;;2077299;28;20446;-66
2023/06/05 20:29:28;;;;;;;7.00;6.50;;;15.60;52.20;;;;;;2070909;28;20305;-65
2023/06/05 20:30:32;;;;;;;10.00;9.40;;;15.60;51.80;;;;;;2068694;28;20727;-66
2023/06/05 20:31:35;;;;;;;6.13;5.63;;;15.60;51.90;;;;;;2062330;28;20602;-67
2023/06/05 20:32:35;;;;;;;7.60;7.03;;;15.50;52.80;;;;;;2062307;28;20241;-67
2023/06/05 20:33:36;;;;;;;7.27;6.77;;;15.50;52.30;;;;;;2078589;28;20255;-66
2023/06/05 20:34:37;;;;;;;7.10;6.60;;;15.50;52.20;;;;;;2069390;28;20279;-66
2023/06/05 20:35:41;;;;;;;8.53;7.83;;;15.50;52.70;;;;;;2070325;28;20230;-67
2023/06/05 20:36:44;;;;;;;8.48;7.88;;;15.50;52.30;;;;;;2062382;28;20779;-66
2023/06/05 20:37:47;;;;;;;6.82;6.32;;;15.50;52.40;;;;;;2069889;28;20249;-66
2023/06/05 20:38:50;;;;;;;8.75;7.95;;;15.50;52.60;;;;;;2069604;28;20237;-67
2023/06/05 20:39:50;;;;;;;7.68;7.18;;;15.40;52.10;;;;;;2070115;28;20277;-67
2023/06/05 20:40:52;;;;;;;6.77;6.23;;;15.40;52.50;;;;;;2071051;28;20826;-66
2023/06/05 20:41:53;;;;;;;9.70;8.88;;;15.50;53.00;;;;;;2070038;28;20252;-67
2023/06/05 20:42:54;;;;;;;6.00;5.28;;;15.40;52.70;;;;;;2070119;28;20283;-65
2023/06/05 20:43:55;;;;;;;6.90;6.40;;;15.40;52.20;;;;;;2065141;28;20727;-66
2023/06/05 20:44:56;;;;;;;6.53;5.70;;;15.50;52.60;;;;;;2070052;28;20679;-66
2023/06/05 20:45:57;;;;;;;5.38;3.60;;;15.40;52.90;;;;;;2065534;28;20230;-66
2023/06/05 20:47:00;;;;;;;8.68;7.97;;;15.40;52.50;;;;;;2059961;28;20218;-66
2023/06/05 20:48:04;;;;;;;4.50;4.13;;;15.40;52.60;;;;;;2068392;28;20229;-66
2023/06/05 20:49:05;;;;;;;4.05;3.75;;;15.40;52.90;;;;;;2065113;28;20265;-66
2023/06/05 20:50:08;;;;;;;8.07;7.32;;;15.40;53.10;;;;;;2065357;28;20214;-66
2023/06/05 20:51:09;;;;;;;4.03;3.50;;;15.30;52.60;;;;;;2077790;28;20185;-66
2023/06/05 20:52:10;;;;;;;6.77;6.07;;;15.30;53.10;;;;;;2069934;28;20589;-67
2023/06/05 20:53:12;;;;;;;6.95;6.35;;;15.20;54.00;;;;;;2070154;28;20687;-67
2023/06/05 20:54:12;;;;;;;4.47;3.90;;;15.20;53.60;;;;;;2062043;28;20193;-67
2023/06/05 20:55:13;;;;;;;5.13;3.50;;;15.20;53.30;;;;;;2069903;28;20188;-67
2023/06/05 20:56:24;;;;;;;9.10;8.47;;;15.20;53.50;;;;;;2067302;28;20736;-67
2023/06/05 20:57:25;;;;;;;7.20;6.70;;;15.20;53.40;;;;;;2062218;28;20190;-66
2023/06/05 20:58:25;;;;;;;8.27;7.67;;;15.20;54.40;;;;;;2071730;28;20924;-66
2023/06/05 20:59:26;;;;;;;6.50;5.90;;;15.10;53.60;;;;;;2072380;28;20200;-66
2023/06/05 21:00:27;;;;;;;5.37;4.93;;;15.10;53.80;;;;;;2071484;28;20196;-66
2023/06/05 21:01:32;;;;;;;6.57;4.35;;;15.20;53.60;;;;;;2071586;28;20190;-65
2023/06/05 21:02:32;;;;;;;5.30;4.85;;;15.10;53.60;;;;;;2071438;28;20220;-67
2023/06/05 21:03:34;;;;;;;7.13;6.63;;;15.20;54.10;;;;;;2071632;28;20672;-66
2023/06/05 21:04:35;;;;;;;8.88;8.07;;;15.10;53.80;;;;;;2071389;28;20205;-66
2023/06/05 21:05:37;;;;;;;6.65;6.05;;;15.10;53.50;;;;;;2072246;28;20695;-66
2023/06/05 21:06:37;;;;;;;7.22;6.72;;;15.10;54.00;;;;;;2070988;28;20209;-66
2023/06/05 21:07:38;;;;;;;4.17;3.77;;;15.10;53.60;;;;;;2071518;28;20198;-65
2023/06/05 21:08:40;;;;;;;8.43;7.90;;;15.10;54.00;;;;;;2072024;28;20220;-67
2023/06/05 21:09:42;;;;;;;6.53;6.03;;;15.10;54.50;;;;;;2072306;28;20194;-66
2023/06/05 21:10:42;;;;;;;7.10;6.60;;;15.10;54.60;;;;;;2070689;28;20213;-67
2023/06/05 21:11:43;;;;;;;9.03;8.40;;;15.00;55.10;;;;;;2062909;28;20209;-67
2023/06/05 21:12:44;;;;;;;3.83;3.03;;;15.00;56.10;;;;;;2065090;28;20186;-68
2023/06/05 21:13:45;;;;;;;7.83;7.23;;;14.90;56.50;;;;;;2070769;28;20193;-66
2023/06/05 21:14:45;;;;;;;7.97;7.47;;;15.00;57.70;;;;;;2069824;28;20547;-67
2023/06/05 21:15:46;;;;;;;7.90;7.20;;;14.90;58.10;;;;;;2070938;28;20293;-67
2023/06/05 21:16:47;;;;;;;7.40;6.70;;;14.90;58.60;;;;;;2071098;28;20220;-67
2023/06/05 21:17:48;;;;;;;7.32;6.82;;;14.80;58.80;;;;;;2079148;28;20817;-66
2023/06/05 21:18:51;;;;;;;5.18;4.68;;;14.80;58.90;;;;;;2078507;28;20215;-67
2023/06/05 21:19:52;;;;;;;5.25;4.85;;;14.80;59.40;;;;;;2071049;28;20189;-66
2023/06/05 21:20:53;;;;;;;4.70;4.30;;;14.70;58.80;;;;;;2062934;28;20632;-66
2023/06/05 21:21:53;;;;;;;5.47;4.97;;;14.70;59.00;;;;;;2070601;28;20185;-67
2023/06/05 21:22:54;;;;;;;4.37;3.97;;;14.70;58.30;;;;;;2075659;28;20185;-67
2023/06/05 21:23:55;;;;;;;4.67;4.37;;;14.60;59.00;;;;;;2070773;28;20197;-66
2023/06/05 21:24:55;;;;;;;4.60;3.73;;;14.50;59.20;;;;;;2070444;28;20193;-67
2023/06/05 21:25:57;;;;;;;4.73;4.10;;;14.40;59.90;;;;;;2071200;28;20818;-67
2023/06/05 21:26:58;;;;;;;5.20;4.68;;;14.30;60.30;;;;;;2071274;28;20266;-67
2023/06/05 21:27:58;;;;;;;5.10;4.60;;;14.40;60.30;;;;;;2071312;28;20213;-68
2023/06/05 21:28:59;;;;;;;5.53;5.03;;;14.40;60.10;;;;;;2071313;28;20213;-67
2023/06/05 21:30:00;;;;;;;6.27;5.77;;;14.40;60.80;;;;;;2070844;28;20391;-66
2023/06/05 21:31:04;;;;;;;4.40;4.10;;;14.40;60.70;;;;;;2070349;28;20804;-66
2023/06/05 21:32:08;;;;;;;4.80;4.10;;;14.40;61.60;;;;;;2071178;28;20213;-67
2023/06/05 21:33:09;;;;;;;4.80;4.30;;;14.40;61.40;;;;;;2063752;28;20277;-67
2023/06/05 21:34:13;;;;;;;5.97;4.70;;;14.30;62.40;;;;;;2066324;28;20174;-67
2023/06/05 21:35:14;;;;;;;5.32;4.07;;;14.30;62.50;;;;;;2069620;28;20182;-67
2023/06/05 21:36:15;;;;;;;4.80;4.33;;;14.30;61.70;;;;;;2071640;28;20189;-67
2023/06/05 21:37:18;;;;;;;5.50;4.77;;;14.20;61.70;;;;;;2071527;28;20186;-66
2023/06/05 21:38:19;;;;;;;5.72;3.85;;;14.20;61.40;;;;;;2062655;28;20292;-64
2023/06/05 21:39:20;;;;;;;5.93;5.43;;;14.30;60.80;;;;;;2061685;28;20738;-66
2023/06/05 21:40:21;;;;;;;6.87;4.97;;;14.30;60.70;;;;;;2079131;28;20177;-66
2023/06/05 21:41:21;;;;;;;5.25;4.20;;;14.30;60.50;;;;;;2079191;28;20185;-66
2023/06/05 21:42:22;;;;;;;4.50;3.45;;;14.30;60.80;;;;;;2071730;28;20206;-66
2023/06/05 21:43:23;;;;;;;6.97;5.57;;;14.30;60.20;;;;;;2071539;28;20186;-66
2023/06/05 21:44:24;;;;;;;4.30;3.80;;;14.30;59.70;;;;;;2070331;28;20189;-66
2023/06/05 21:45:25;;;;;;;5.63;4.40;;;14.30;60.90;;;;;;2070815;28;20182;-67
2023/06/05 21:46:26;;;;;;;5.25;4.75;;;14.20;58.70;;;;;;2071032;28;20796;-66
2023/06/05 21:47:26;;;;;;;5.17;4.20;;;14.20;59.30;;;;;;2071045;28;20194;-66
2023/06/05 21:48:27;;;;;;;4.40;4.00;;;14.20;59.80;;;;;;2069413;28;20612;-66
2023/06/05 21:49:29;;;;;;;5.45;3.47;;;14.10;59.20;;;;;;2071251;28;20725;-66
2023/06/05 21:50:29;;;;;;;5.93;5.30;;;14.20;59.10;;;;;;2071521;28;20220;-66
2023/06/05 21:51:33;;;;;;;4.30;3.40;;;14.20;58.90;;;;;;2070895;28;20576;-66
2023/06/05 21:52:35;;;;;;;7.00;5.45;;;14.30;58.70;;;;;;2069256;28;20226;-66
2023/06/05 21:53:36;;;;;;;8.73;8.05;;;14.30;58.40;;;;;;2070887;28;20185;-66
2023/06/05 21:54:40;;;;;;;6.00;5.50;;;14.30;58.40;;;;;;2062375;28;20664;-66
2023/06/05 21:55:41;;;;;;;10.65;9.93;;;14.20;58.50;;;;;;2056467;28;20210;-66
2023/06/05 21:56:42;;;;;;;5.77;5.37;;;14.20;59.90;;;;;;2063141;28;20254;-66
2023/06/05 21:57:43;;;;;;;9.33;8.73;;;14.10;58.80;;;;;;2071087;28;20193;-67
2023/06/05 21:58:44;;;;;;;3.53;3.22;;;14.10;58.30;;;;;;2071125;28;20186;-66
2023/06/05 21:59:45;;;;;;;5.63;5.03;;;14.10;57.80;;;;;;2070842;28;20324;-65
2023/06/05 22:00:46;;;;;;;3.60;3.28;;;14.20;57.60;;;;;;2071370;28;20197;-66
2023/06/05 22:01:47;;;;;;;3.60;3.30;;;14.20;57.80;;;;;;2071739;28;20280;-66
2023/06/05 22:02:47;;;;;;;4.37;3.97;;;14.10;57.80;;;;;;2071358;28;20209;-65
2023/06/05 22:03:49;;;;;;;3.53;3.23;;;14.10;59.00;;;;;;2066863;28;20232;-66
2023/06/05 22:04:52;;;;;;;4.53;4.07;;;14.10;57.90;;;;;;2062164;28;20202;-66
2023/06/05 22:05:57;;;;;;;5.70;5.20;;;14.10;57.90;;;;;;2070942;28;20221;-66
2023/06/05 22:06:58;;;;;;;4.28;3.63;;;14.10;58.10;;;;;;2071389;28;20192;-66
2023/06/05 22:08:01;;;;;;;4.60;3.37;;;14.10;58.20;;;;;;2071753;28;20198;-68
2023/06/05 22:09:03;;;;;;;4.10;3.80;;;14.10;58.60;;;;;;2070452;28;20182;-65
2023/06/05 22:10:06;;;;;;;5.15;4.68;;;14.10;58.80;;;;;;2071329;28;20197;-66
2023/06/05 22:11:07;;;;;;;4.32;3.72;;;14.00;58.90;;;;;;2071160;28;20256;-65
2023/06/05 22:12:14;;;;;;;4.33;3.93;;;13.90;59.30;;;;;;2071197;28;20251;-66
2023/06/05 22:13:18;;;;;;;5.50;4.25;;;13.80;59.70;;;;;;2070704;28;20185;-66
2023/06/05 22:14:24;;;;;;;4.65;3.30;;;13.80;59.80;;;;;;2070879;28;20659;-65
2023/06/05 22:15:25;;;;;;;3.35;3.10;;;13.80;59.20;;;;;;2070648;28;20253;-66
2023/06/05 22:16:30;;;;;;;3.63;3.23;;;13.80;60.10;;;;;;2070971;28;20224;-66
2023/06/05 22:17:31;;;;;;;4.45;4.05;;;13.80;58.90;;;;;;2063274;28;20275;-67
2023/06/05 22:18:41;;;;;;;4.78;4.20;;;13.80;58.80;;;;;;2072126;28;20264;-66
2023/06/05 22:19:41;;;;;;;6.32;5.78;;;13.80;59.10;;;;;;2072781;28;20194;-67
2023/06/05 22:20:43;;;;;;;4.83;4.43;;;13.80;59.30;;;;;;2073148;28;20674;-66
2023/06/05 22:21:47;;;;;;;3.97;3.67;;;13.70;59.40;;;;;;2071853;28;20680;-66
2023/06/05 22:22:48;;;;;;;5.68;5.10;;;13.70;59.40;;;;;;2064299;28;20210;-66
2023/06/05 22:23:49;;;;;;;4.40;4.10;;;13.70;59.40;;;;;;2063842;28;20182;-66
2023/06/05 22:24:52;;;;;;;3.88;3.50;;;13.70;59.70;;;;;;2072753;28;20177;-66
2023/06/05 22:25:53;;;;;;;9.05;8.45;;;13.60;59.50;;;;;;2072349;28;20201;-65
2023/06/05 22:26:54;;;;;;;4.03;3.73;;;13.60;59.60;;;;;;2072440;28;20668;-66
2023/06/05 22:27:55;;;;;;;4.65;3.65;;;13.60;60.60;;;;;;2072461;28;20205;-66
2023/06/05 22:28:58;;;;;;;4.43;4.03;;;13.70;60.10;;;;;;2072632;28;20186;-65
2023/06/05 22:30:00;;;;;;;3.30;3.00;;;13.60;59.90;;;;;;2072356;28;20277;-66
2023/06/05 22:31:01;;;;;;;4.25;2.67;;;13.60;59.70;;;;;;2072263;28;20205;-66
2023/06/05 22:32:02;;;;;;;2.93;2.70;;;13.60;59.80;;;;;;2071654;28;20221;-65
2023/06/05 22:33:02;;;;;;;6.30;5.77;;;13.60;60.00;;;;;;2072405;28;20439;-66
2023/06/05 22:34:05;;;;;;;5.50;3.23;;;13.50;60.00;;;;;;2070704;28;20183;-66
2023/06/05 22:35:08;;;;;;;4.40;4.00;;;13.50;59.80;;;;;;2072437;28;20674;-66
2023/06/05 22:36:09;;;;;;;5.93;5.00;;;13.50;59.80;;;;;;2073069;28;20600;-66
2023/06/05 22:37:11;;;;;;;5.07;3.20;;;13.60;59.50;;;;;;2080688;28;20237;-65
2023/06/05 22:38:12;;;;;;;4.57;4.18;;;13.50;59.70;;;;;;2080016;28;20208;-66
2023/06/05 22:39:13;;;;;;;4.13;3.70;;;13.50;60.60;;;;;;2080220;28;20184;-67
2023/06/05 22:40:14;;;;;;;4.50;3.83;;;13.50;60.90;;;;;;2072498;28;20219;-66
2023/06/05 22:41:15;;;;;;;4.23;3.93;;;13.40;61.00;;;;;;2073415;28;20296;-67
2023/06/05 22:42:16;;;;;;;4.53;4.13;;;13.40;61.10;;;;;;2080728;28;21100;-65
2023/06/05 22:43:17;;;;;;;3.70;3.40;;;13.40;61.00;;;;;;2080710;28;20721;-70
2023/06/05 22:44:18;;;;;;;3.73;3.43;;;13.40;61.10;;;;;;2071771;28;20280;-67
2023/06/05 22:45:21;;;;;;;4.28;3.92;;;13.40;61.90;;;;;;2071908;28;20209;-67
2023/06/05 22:46:21;;;;;;;4.50;4.10;;;13.30;62.30;;;;;;2064271;28;20999;-67
2023/06/05 22:47:28;;;;;;;4.00;3.67;;;13.30;62.60;;;;;;2072507;28;20220;-66
2023/06/05 22:48:32;;;;;;;4.80;4.30;;;13.30;63.20;;;;;;2072461;28;20213;-67
2023/06/05 22:49:33;;;;;;;5.70;4.38;;;13.30;63.20;;;;;;2064388;28;20195;-67
2023/06/05 22:50:37;;;;;;;4.73;4.33;;;13.20;63.60;;;;;;2064518;28;20232;-67